High Bridge, WI (54846)

6:49 AM CDT on October 01, 2014 (GMT -0500)
5050 Ranch | Change Station
CLOSE
Current Station
Personal Weather Station
Location: High Bridge, WI
Elevation: 1300 ft
Nearby Weather Stations

Elev 1300 ft 46.35 °N, 90.75 °W | Updated 1 minute ago

Partly Cloudy
Partly Cloudy
45.0 °F
Feels Like 39 °F
N
12.0
Wind Variable Wind from SSW
Gusts 18.0 mph

Today
High -- | Low -- °F
--% Chance of Precip.
Yesterday
High -- | Low -- °F
Precip. -- in
7:01 AM 6:42 PM
Waxing Crescent, 47% visible
Pressure 29.94 in
Visibility 10.0 miles
Clouds Few 1700 ft
Scattered Clouds 5500 ft
Windchill 39 °F
Dew Point 42 °F
Humidity 90%
Rainfall 0.00 in
Snow Depth Not available.
UV 0 out of 12
Pollen .30 out of 12
Air Quality Not available.
Flu Activity Not available.
METAR KASX 010900Z AUTO 00000KT 10SM FEW017 SCT055 07/06 A2994 RMK AO2 T00670056

More Conditions Fewer Conditions

Pressure 29.94 in
Visibility 10.0 miles
Clouds Few 1700 ft
Scattered Clouds 5500 ft
Windchill 39 °F
Dew Point 42 °F
Humidity 90%
Rainfall 0.00 in
Snow Depth Not available.
UV 0 out of 12
Pollen .30 out of 12
Air Quality Not available.
Flu Activity Not available.
METAR KASX 010900Z AUTO 00000KT 10SM FEW017 SCT055 07/06 A2994 RMK AO2 T00670056

More Conditions Fewer Conditions

10-Day Weather Forecast

Almanac

Astronomy

Oct. 01, 2014 Rise Set
Actual Time 7:01 AM CDT 6:42 PM CDT
Civil Twilight 6:31 AM CDT 7:12 PM CDT
Nautical Twilight 5:56 AM CDT 7:47 PM CDT
Astronomical Twilight 5:21 AM CDT 8:23 PM CDT
Moon 2:17 PM CDT No Moon Set
Length of Visible Light 12h 41m
Length of Day
11h 41m
Tomorrow will be 3m 15s shorter.
Waxing Crescent, 47% of the Moon is Illuminated
Today
Waxing Crescent
Oct 1
First Quarter
Oct 8
Full
Oct 15
Last Quarter
Oct 23
New

Today's Extremes

State Highs State Lows

Community

WunderPhotos

Upload Photos

1,757,913 photos uploaded!

Nearby

Snow Depth

Station Depth Elevation
No new snow has been reported.

Earthquake Activity

City Distance Mag. Time & Date
No recent earthquake activity has been reported nearby.
Minimum magnitude displayed is 2.5.

Coastal Water Temperatures

Place Temperature
Duluth, MN 60.1 °F

Nearby Weather Stations